Time;durP1;ratioP1;P1;durP2;ratioP2;P2;SDS_P1;SDS_P2;PMS_P1;PMS_P2;Temp;Humidity;BMP_temperature;BMP_pressure;BME280_temperature;BME280_humidity;BME280_pressure;Samples;Min_cycle;Max_cycle;Signal;HPM_P1;HPM_P2
2022/05/19 00:01:54;;;;;;;3.63;3.33;;;18.80;99.90;;;;;;6032677;23;20479;-83
2022/05/19 00:04:21;;;;;;;3.47;3.17;;;18.80;99.90;;;;;;6040239;23;20488;-83
2022/05/19 00:06:48;;;;;;;3.63;2.93;;;18.80;99.90;;;;;;6035983;23;20548;-83
2022/05/19 00:09:16;;;;;;;4.73;3.13;;;18.80;99.90;;;;;;6033615;23;20444;-83
2022/05/19 00:11:44;;;;;;;3.13;2.83;;;18.80;99.90;;;;;;6024819;23;20449;-83
2022/05/19 00:14:12;;;;;;;3.37;3.07;;;18.80;99.90;;;;;;6042257;23;20494;-83
2022/05/19 00:16:40;;;;;;;3.57;3.30;;;18.70;99.90;;;;;;6037332;23;20460;-83
2022/05/19 00:19:07;;;;;;;2.80;2.60;;;18.70;99.90;;;;;;6034299;23;20440;-83
2022/05/19 00:21:35;;;;;;;3.47;3.17;;;18.60;99.90;;;;;;6038984;23;20468;-83
2022/05/19 00:24:02;;;;;;;3.10;2.90;;;18.60;99.90;;;;;;6035636;23;20583;-83
2022/05/19 00:26:29;;;;;;;2.90;2.63;;;18.50;99.90;;;;;;6042477;23;20515;-83
2022/05/19 00:28:56;;;;;;;2.60;2.40;;;18.50;99.90;;;;;;6028005;23;20452;-83
2022/05/19 00:31:23;;;;;;;3.17;2.97;;;18.40;99.90;;;;;;6030742;23;20542;-83
2022/05/19 00:33:51;;;;;;;5.13;3.23;;;18.40;99.90;;;;;;6051100;23;20478;-83
2022/05/19 00:36:21;;;;;;;3.23;2.80;;;18.40;99.90;;;;;;6030350;23;20551;-83
2022/05/19 00:38:48;;;;;;;3.40;3.07;;;18.30;99.90;;;;;;6032659;23;20448;-83
2022/05/19 00:41:16;;;;;;;3.33;3.00;;;18.20;99.90;;;;;;6043306;23;20459;-83
2022/05/19 00:43:45;;;;;;;3.37;3.10;;;18.10;99.90;;;;;;6025113;23;20526;-83
2022/05/19 00:46:19;;;;;;;3.50;3.00;;;18.10;99.90;;;;;;6035201;23;20464;-83
2022/05/19 00:48:50;;;;;;;3.20;3.00;;;18.00;99.90;;;;;;6026510;23;20440;-83
2022/05/19 00:51:21;;;;;;;2.83;2.63;;;17.90;99.90;;;;;;6044814;23;20444;-83
2022/05/19 00:53:52;;;;;;;3.77;2.77;;;17.90;99.90;;;;;;6048323;23;20763;-83
2022/05/19 00:56:23;;;;;;;3.53;3.07;;;17.80;99.90;;;;;;6039539;23;20852;-84
2022/05/19 00:58:56;;;;;;;3.33;2.70;;;17.80;99.90;;;;;;6039995;23;20584;-84
2022/05/19 01:01:23;;;;;;;3.23;2.93;;;17.80;99.90;;;;;;6038313;23;20464;-84
2022/05/19 01:03:55;;;;;;;4.40;2.80;;;17.70;99.90;;;;;;6036700;23;20646;-83
2022/05/19 01:06:26;;;;;;;3.57;3.27;;;17.70;99.90;;;;;;6038965;23;20487;-83
2022/05/19 01:08:58;;;;;;;3.93;3.03;;;17.60;99.90;;;;;;6049542;23;20570;-83
2022/05/19 01:11:25;;;;;;;3.50;3.20;;;17.60;99.90;;;;;;6045651;23;20453;-83
2022/05/19 01:13:52;;;;;;;3.43;2.60;;;17.50;99.90;;;;;;6041042;23;20480;-83
2022/05/19 01:16:20;;;;;;;3.17;2.97;;;17.50;99.90;;;;;;6046112;23;20492;-84
2022/05/19 01:18:47;;;;;;;4.37;3.10;;;17.50;99.90;;;;;;6037794;23;20456;-83
2022/05/19 01:21:17;;;;;;;3.50;3.10;;;17.50;99.90;;;;;;6039095;23;20802;-84
2022/05/19 01:24:06;;;;;;;3.77;3.20;;;17.40;99.90;;;;;;6030954;23;21034;-83
2022/05/19 01:26:45;;;;;;;4.30;3.00;;;17.40;99.90;;;;;;6045005;23;20467;-83
2022/05/19 01:29:15;;;;;;;4.80;3.20;;;17.40;99.90;;;;;;6041916;23;20470;-83
2022/05/19 01:31:48;;;;;;;3.40;3.00;;;17.40;99.90;;;;;;6039375;23;20515;-83
2022/05/19 01:34:16;;;;;;;3.30;3.00;;;17.30;99.90;;;;;;6045162;23;20436;-83
2022/05/19 01:36:43;;;;;;;3.33;3.00;;;17.30;99.90;;;;;;6042209;23;20711;-83
2022/05/19 01:39:12;;;;;;;3.53;3.03;;;17.20;99.90;;;;;;6055821;23;20458;-83
2022/05/19 01:41:57;;;;;;;3.43;3.13;;;17.10;99.90;;;;;;6040898;23;20468;-83
2022/05/19 01:44:36;;;;;;;3.40;3.17;;;17.10;99.90;;;;;;6030055;23;20482;-83
2022/05/19 01:47:09;;;;;;;3.13;2.93;;;17.00;99.90;;;;;;6043688;23;20990;-83
2022/05/19 01:49:40;;;;;;;4.47;3.00;;;17.00;99.90;;;;;;6032189;23;20526;-81
2022/05/19 01:52:14;;;;;;;3.50;2.87;;;17.00;99.90;;;;;;6026573;23;20447;-82
2022/05/19 01:54:49;;;;;;;2.90;2.70;;;17.10;99.90;;;;;;6024370;23;20436;-87
2022/05/19 01:57:24;;;;;;;3.40;3.10;;;16.90;99.90;;;;;;6026013;23;20849;-84
2022/05/19 01:59:58;;;;;;;3.67;2.93;;;16.90;99.90;;;;;;6023797;23;20810;-83
2022/05/19 02:02:33;;;;;;;3.47;3.17;;;16.80;99.90;;;;;;6022979;23;20475;-82
2022/05/19 02:05:06;;;;;;;3.07;2.87;;;16.80;99.90;;;;;;6033473;23;21014;-83
2022/05/19 02:07:36;;;;;;;3.97;3.17;;;16.80;99.90;;;;;;6021950;23;20456;-83
2022/05/19 02:10:08;;;;;;;3.00;2.70;;;16.70;99.90;;;;;;6028684;23;20432;-82
2022/05/19 02:12:38;;;;;;;3.00;2.80;;;16.70;99.90;;;;;;6030842;23;20444;-83
2022/05/19 02:15:09;;;;;;;3.20;2.90;;;16.70;99.90;;;;;;6030067;23;20459;-83
2022/05/19 02:17:36;;;;;;;3.50;3.20;;;16.70;99.90;;;;;;6027065;23;20478;-83
2022/05/19 02:20:08;;;;;;;3.40;2.70;;;16.70;99.90;;;;;;6030077;23;20456;-83
2022/05/19 02:22:37;;;;;;;3.13;2.93;;;16.70;99.90;;;;;;6026815;23;21256;-82
2022/05/19 02:25:11;;;;;;;2.87;2.63;;;16.60;99.90;;;;;;6031219;23;20999;-82
2022/05/19 02:27:46;;;;;;;3.43;3.13;;;16.60;99.90;;;;;;6029124;23;20534;-82
2022/05/19 02:30:19;;;;;;;2.90;2.70;;;16.60;99.90;;;;;;6011615;23;20446;-83
2022/05/19 02:32:46;;;;;;;3.50;3.30;;;16.60;99.90;;;;;;6024425;23;20444;-82
2022/05/19 02:35:14;;;;;;;3.30;3.00;;;16.60;99.90;;;;;;6022733;23;20812;-81
2022/05/19 02:37:41;;;;;;;3.60;3.30;;;16.50;99.90;;;;;;6033870;23;20440;-82
2022/05/19 02:40:10;;;;;;;3.00;2.80;;;16.40;99.90;;;;;;6021245;23;20447;-82
2022/05/19 02:42:39;;;;;;;3.50;3.20;;;16.40;99.90;;;;;;6029502;23;20545;-83
2022/05/19 02:45:07;;;;;;;3.23;3.00;;;16.30;99.90;;;;;;6020927;23;20440;-83
2022/05/19 02:47:34;;;;;;;3.20;3.00;;;16.30;99.90;;;;;;6015929;23;22158;-83
2022/05/19 02:50:02;;;;;;;3.63;2.90;;;16.30;99.90;;;;;;6031905;23;20455;-84
2022/05/19 02:52:28;;;;;;;3.33;3.03;;;16.20;99.90;;;;;;6043939;23;20436;-83
2022/05/19 02:54:55;;;;;;;3.80;3.40;;;16.10;99.90;;;;;;6037785;23;20440;-83
2022/05/19 02:57:22;;;;;;;3.60;3.30;;;16.10;99.90;;;;;;6030880;23;20480;-83
2022/05/19 02:59:51;;;;;;;3.80;3.23;;;16.00;99.90;;;;;;6049168;23;20464;-83
2022/05/19 03:02:17;;;;;;;3.53;3.23;;;15.90;99.90;;;;;;6041707;23;20464;-82
2022/05/19 03:04:45;;;;;;;4.80;3.10;;;16.00;99.90;;;;;;6035285;23;20804;-83
2022/05/19 03:07:12;;;;;;;3.27;3.03;;;15.90;99.90;;;;;;6024316;23;20540;-83
2022/05/19 03:09:40;;;;;;;3.47;3.13;;;15.90;99.90;;;;;;6028335;23;20479;-82
2022/05/19 03:12:09;;;;;;;3.80;3.50;;;15.90;99.90;;;;;;6049157;23;20517;-83
2022/05/19 03:14:36;;;;;;;3.00;2.80;;;15.90;99.90;;;;;;6040498;23;20482;-83
2022/05/19 03:17:06;;;;;;;3.97;3.40;;;15.90;99.90;;;;;;6034233;23;21014;-83
2022/05/19 03:19:33;;;;;;;3.30;3.10;;;16.00;99.90;;;;;;6037434;23;20463;-83
2022/05/19 03:21:59;;;;;;;3.73;3.10;;;16.00;99.90;;;;;;6046191;23;20547;-82
2022/05/19 03:24:26;;;;;;;3.40;3.10;;;16.00;99.90;;;;;;6045152;23;20484;-82
2022/05/19 03:26:53;;;;;;;3.37;3.13;;;15.90;99.90;;;;;;6044356;23;20477;-83
2022/05/19 03:29:20;;;;;;;3.20;3.00;;;15.90;99.90;;;;;;6045249;23;20510;-83
2022/05/19 03:31:47;;;;;;;2.87;2.67;;;15.90;99.90;;;;;;6040582;23;20446;-83
2022/05/19 03:34:17;;;;;;;3.50;3.17;;;15.90;99.90;;;;;;6025223;23;20475;-82
2022/05/19 03:36:44;;;;;;;3.47;3.17;;;15.90;99.90;;;;;;6032566;23;20491;-82
2022/05/19 03:39:11;;;;;;;3.33;3.03;;;15.90;99.90;;;;;;6045251;23;20448;-83
2022/05/19 03:41:38;;;;;;;4.40;3.03;;;16.00;99.90;;;;;;6027618;23;20611;-83
2022/05/19 03:44:06;;;;;;;3.37;3.07;;;16.00;99.90;;;;;;6046500;23;20475;-75
2022/05/19 03:46:33;;;;;;;4.60;3.10;;;16.10;99.90;;;;;;6024388;23;20479;-75
2022/05/19 03:49:00;;;;;;;3.00;2.80;;;16.10;99.90;;;;;;6032909;23;20440;-76
2022/05/19 03:51:30;;;;;;;2.90;2.70;;;16.20;99.90;;;;;;6022118;23;20440;-76
2022/05/19 03:53:57;;;;;;;3.90;3.23;;;16.20;99.90;;;;;;6027731;23;20527;-76
2022/05/19 03:56:26;;;;;;;3.47;2.97;;;16.20;99.90;;;;;;6036890;23;20534;-76
2022/05/19 03:58:53;;;;;;;3.37;3.00;;;16.20;99.90;;;;;;6053135;23;20439;-76
2022/05/19 04:01:21;;;;;;;3.40;2.70;;;16.30;99.90;;;;;;6047626;23;20452;-76
2022/05/19 04:03:49;;;;;;;3.67;3.10;;;16.30;99.90;;;;;;6049820;23;20455;-75
2022/05/19 04:06:16;;;;;;;4.00;3.03;;;16.30;99.90;;;;;;6032935;23;20817;-76
2022/05/19 04:08:46;;;;;;;2.87;2.63;;;16.30;99.90;;;;;;6041231;23;20439;-76
2022/05/19 04:11:13;;;;;;;3.00;2.80;;;16.30;99.90;;;;;;6029828;23;20432;-77
2022/05/19 04:13:40;;;;;;;4.67;3.00;;;16.40;99.90;;;;;;6026127;23;20515;-77
2022/05/19 04:16:07;;;;;;;3.03;2.83;;;16.40;99.90;;;;;;6023360;23;20553;-76
2022/05/19 04:18:35;;;;;;;3.37;3.07;;;16.40;99.90;;;;;;6029759;23;20480;-77
2022/05/19 04:21:02;;;;;;;3.00;2.80;;;16.40;99.90;;;;;;6027358;23;20486;-78
2022/05/19 04:23:29;;;;;;;3.30;3.00;;;16.40;99.90;;;;;;6024247;23;20472;-78
2022/05/19 04:25:57;;;;;;;3.60;3.30;;;16.40;99.90;;;;;;6027057;23;20456;-77
2022/05/19 04:28:24;;;;;;;3.70;3.33;;;16.40;99.90;;;;;;6023514;23;20583;-77
2022/05/19 04:30:51;;;;;;;3.63;3.10;;;16.50;99.90;;;;;;6024330;23;20439;-80
2022/05/19 04:33:18;;;;;;;3.10;2.80;;;16.40;99.90;;;;;;6025272;23;20459;-76
2022/05/19 04:35:45;;;;;;;4.03;3.67;;;16.50;99.90;;;;;;6029219;23;20487;-78
2022/05/19 04:38:15;;;;;;;3.70;3.47;;;16.40;99.90;;;;;;6029923;23;20438;-79
2022/05/19 04:40:47;;;;;;;5.13;3.70;;;16.40;99.90;;;;;;6022891;23;20436;-78
2022/05/19 04:43:19;;;;;;;4.23;3.83;;;16.30;99.90;;;;;;6023167;23;20562;-77
2022/05/19 04:45:47;;;;;;;5.27;3.93;;;16.30;99.90;;;;;;6030884;23;20815;-77
2022/05/19 04:48:14;;;;;;;3.90;3.60;;;16.30;99.90;;;;;;6029497;23;20432;-76
2022/05/19 04:50:42;;;;;;;3.80;3.50;;;16.30;99.90;;;;;;6027432;23;20590;-86
2022/05/19 04:53:09;;;;;;;3.60;3.23;;;16.30;99.90;;;;;;6028327;23;20531;-76
2022/05/19 04:55:37;;;;;;;3.70;3.40;;;16.30;99.90;;;;;;6024131;23;20485;-76
2022/05/19 04:58:05;;;;;;;3.67;3.37;;;16.30;99.90;;;;;;6028133;23;20448;-76
2022/05/19 05:00:34;;;;;;;3.93;3.40;;;16.30;99.90;;;;;;6029754;23;20808;-75
2022/05/19 05:03:01;;;;;;;4.53;4.13;;;16.30;99.90;;;;;;6024851;23;20472;-76
2022/05/19 05:05:28;;;;;;;4.27;3.30;;;16.30;99.90;;;;;;6027671;23;20500;-75
2022/05/19 05:07:56;;;;;;;3.53;3.23;;;16.40;99.90;;;;;;6024624;23;20445;-75
2022/05/19 05:10:23;;;;;;;3.90;3.50;;;16.50;99.90;;;;;;6029226;23;20439;-75
2022/05/19 05:12:49;;;;;;;3.77;3.47;;;16.50;99.90;;;;;;6030268;23;20441;-76
2022/05/19 05:15:16;;;;;;;3.40;3.10;;;16.50;99.90;;;;;;6028671;23;20542;-76
2022/05/19 05:17:45;;;;;;;3.23;2.93;;;16.60;99.90;;;;;;6024137;23;20444;-76
2022/05/19 05:20:13;;;;;;;3.70;3.30;;;16.60;99.90;;;;;;6025835;23;20460;-76
2022/05/19 05:22:41;;;;;;;3.80;3.43;;;16.60;99.90;;;;;;6024330;23;20467;-76
2022/05/19 05:25:11;;;;;;;5.53;3.80;;;16.60;99.90;;;;;;6032584;23;20464;-75
2022/05/19 05:27:38;;;;;;;5.73;4.20;;;16.70;99.90;;;;;;6025465;23;20448;-76
2022/05/19 05:30:06;;;;;;;5.00;4.30;;;16.70;99.90;;;;;;6029101;23;20443;-76
2022/05/19 05:32:34;;;;;;;5.07;4.33;;;16.80;99.90;;;;;;6029547;23;20935;-76
2022/05/19 05:35:02;;;;;;;5.17;4.60;;;16.90;99.90;;;;;;6027547;23;20955;-76
2022/05/19 05:37:29;;;;;;;5.93;5.10;;;16.90;99.90;;;;;;6030302;23;20467;-76
2022/05/19 05:39:56;;;;;;;6.80;6.07;;;16.90;99.90;;;;;;6027776;23;20535;-76
2022/05/19 05:42:23;;;;;;;6.67;6.00;;;17.00;99.90;;;;;;6031276;23;20436;-76
2022/05/19 05:44:50;;;;;;;7.27;5.70;;;17.00;99.90;;;;;;6030657;23;20874;-76
2022/05/19 05:47:17;;;;;;;6.00;5.40;;;17.00;99.90;;;;;;6029118;23;20432;-76
2022/05/19 05:49:44;;;;;;;6.10;5.50;;;17.10;99.90;;;;;;6027950;23;20460;-76
2022/05/19 05:52:13;;;;;;;5.13;4.73;;;17.10;99.90;;;;;;6026263;23;20803;-76
2022/05/19 05:54:40;;;;;;;5.50;5.00;;;17.10;99.90;;;;;;6030251;23;20440;-76
2022/05/19 05:57:07;;;;;;;5.53;5.03;;;17.20;99.90;;;;;;6032408;23;20436;-76
2022/05/19 05:59:34;;;;;;;6.50;5.20;;;17.30;99.90;;;;;;6029576;23;20507;-76
2022/05/19 06:02:01;;;;;;;5.60;5.03;;;17.30;99.90;;;;;;6025298;23;20441;-76
2022/05/19 06:04:28;;;;;;;6.27;4.67;;;17.40;99.90;;;;;;6029893;23;20539;-76
2022/05/19 06:06:55;;;;;;;6.23;4.93;;;17.50;99.90;;;;;;6023696;23;20437;-77
2022/05/19 06:09:23;;;;;;;5.60;5.10;;;17.60;99.90;;;;;;6028949;23;20519;-76
2022/05/19 06:11:51;;;;;;;5.47;4.50;;;17.60;99.90;;;;;;6029203;23;20444;-77
2022/05/19 06:14:18;;;;;;;4.93;4.40;;;17.70;99.90;;;;;;6027215;23;20765;-74
2022/05/19 06:16:45;;;;;;;4.23;3.83;;;17.70;99.90;;;;;;6027060;23;20464;-77
2022/05/19 06:19:12;;;;;;;4.77;4.37;;;17.80;99.90;;;;;;6022968;23;20429;-74
2022/05/19 06:21:39;;;;;;;4.40;4.00;;;17.90;99.90;;;;;;6025848;23;22476;-75
2022/05/19 06:24:08;;;;;;;4.20;3.90;;;18.00;99.90;;;;;;6029413;23;21221;-75
2022/05/19 06:26:37;;;;;;;6.00;3.87;;;18.10;99.90;;;;;;6027561;23;20994;-75
2022/05/19 06:29:04;;;;;;;4.03;3.43;;;18.30;99.90;;;;;;6029294;23;20436;-77
2022/05/19 06:31:32;;;;;;;6.70;3.73;;;18.40;99.90;;;;;;6026864;23;20502;-75
2022/05/19 06:33:59;;;;;;;5.20;3.47;;;18.50;99.90;;;;;;6027375;23;20445;-75
2022/05/19 06:36:26;;;;;;;3.67;3.33;;;18.60;99.90;;;;;;6024376;23;20464;-75
2022/05/19 06:38:53;;;;;;;4.57;3.57;;;18.70;99.90;;;;;;6027266;23;20539;-75
2022/05/19 06:44:07;;;;;;;4.17;3.50;;;18.90;99.90;;;;;;6028731;23;20459;-75
2022/05/19 06:46:34;;;;;;;4.00;3.70;;;19.10;99.90;;;;;;6021930;23;20523;-75
2022/05/19 06:49:02;;;;;;;5.40;3.90;;;19.10;99.90;;;;;;6027271;23;20520;-74
2022/05/19 06:51:29;;;;;;;4.57;3.73;;;19.20;99.90;;;;;;6030446;23;20736;-75
2022/05/19 06:53:56;;;;;;;3.63;3.40;;;19.30;99.90;;;;;;6027378;23;20443;-79
2022/05/19 06:56:23;;;;;;;3.47;3.20;;;19.40;99.90;;;;;;6030256;23;21001;-83
2022/05/19 06:58:50;;;;;;;3.57;3.30;;;19.50;99.90;;;;;;6026574;23;20567;-78
2022/05/19 07:01:19;;;;;;;4.17;3.07;;;19.60;99.90;;;;;;6027527;23;20933;-78
2022/05/19 07:03:46;;;;;;;3.90;3.47;;;19.80;99.90;;;;;;6030859;23;20523;-81
2022/05/19 07:06:13;;;;;;;4.80;3.40;;;19.90;99.90;;;;;;6030460;23;20927;-79
2022/05/19 07:08:40;;;;;;;3.23;2.93;;;20.10;99.90;;;;;;6027229;23;20453;-81
2022/05/19 07:11:24;;;;;;;3.87;3.43;;;20.30;99.90;;;;;;6026515;23;20444;-79
2022/05/19 07:13:52;;;;;;;4.63;3.20;;;20.50;99.90;;;;;;6030208;23;20471;-78
2022/05/19 07:16:21;;;;;;;3.70;3.40;;;20.80;99.90;;;;;;6026619;23;21294;-79
2022/05/19 07:18:48;;;;;;;3.37;3.07;;;21.00;99.90;;;;;;6028223;23;21140;-79
2022/05/19 07:21:16;;;;;;;4.67;3.00;;;21.30;99.90;;;;;;6028025;23;20441;-78
2022/05/19 07:23:43;;;;;;;3.30;3.00;;;21.70;99.90;;;;;;6028383;23;20460;-79
2022/05/19 07:26:10;;;;;;;3.00;2.73;;;22.10;99.90;;;;;;6023126;23;20455;-79
2022/05/19 07:28:37;;;;;;;5.93;3.07;;;22.60;99.90;;;;;;6028456;23;20452;-79
2022/05/19 07:31:04;;;;;;;5.37;3.27;;;22.80;99.90;;;;;;6029408;23;20476;-79
2022/05/19 07:33:36;;;;;;;4.33;3.07;;;23.10;99.90;;;;;;6028161;23;20814;-79
2022/05/19 07:36:06;;;;;;;3.50;2.73;;;23.50;99.60;;;;;;6026821;23;20490;-79
2022/05/19 07:38:34;;;;;;;3.17;2.80;;;23.90;98.80;;;;;;6025176;23;20455;-79
2022/05/19 07:41:03;;;;;;;4.00;3.07;;;24.30;97.40;;;;;;6027284;23;20441;-80
2022/05/19 07:43:37;;;;;;;3.13;2.93;;;24.70;97.10;;;;;;6028376;23;21212;-80
2022/05/19 07:46:05;;;;;;;3.40;3.10;;;24.70;96.30;;;;;;6026806;23;20793;-79
2022/05/19 07:48:35;;;;;;;4.17;3.77;;;24.90;96.30;;;;;;6027232;23;20524;-78
2022/05/19 07:51:03;;;;;;;4.40;3.20;;;25.20;95.60;;;;;;6029182;23;20816;-78
2022/05/19 07:53:30;;;;;;;4.10;3.00;;;25.60;94.70;;;;;;6027926;23;20970;-79
2022/05/19 07:55:57;;;;;;;3.60;3.30;;;25.80;94.40;;;;;;6023563;23;20530;-79
2022/05/19 07:58:24;;;;;;;3.40;3.10;;;26.30;94.00;;;;;;6026033;23;20428;-79
2022/05/19 08:00:53;;;;;;;3.43;3.13;;;26.50;93.70;;;;;;6023701;23;20527;-79
2022/05/19 08:03:23;;;;;;;5.20;3.97;;;26.90;92.90;;;;;;6023454;23;20471;-79
2022/05/19 08:05:52;;;;;;;3.73;3.43;;;26.90;92.30;;;;;;6025973;23;20470;-79
2022/05/19 08:08:20;;;;;;;4.90;3.57;;;27.00;91.50;;;;;;6028178;23;20524;-79
2022/05/19 08:10:47;;;;;;;4.23;3.17;;;27.00;91.80;;;;;;6021050;23;20796;-79
2022/05/19 08:15:59;;;;;;;4.03;3.20;;;27.20;91.70;;;;;;6028492;23;20456;-79
2022/05/19 08:18:26;;;;;;;4.43;3.10;;;27.40;91.10;;;;;;6027143;23;20466;-79
2022/05/19 08:20:58;;;;;;;3.60;3.30;;;27.50;90.60;;;;;;6028461;23;20502;-79
2022/05/19 08:23:27;;;;;;;3.20;2.93;;;27.70;90.50;;;;;;6031042;23;20451;-79
2022/05/19 08:25:54;;;;;;;3.30;2.87;;;28.20;90.40;;;;;;6029903;23;20456;-79
2022/05/19 08:28:21;;;;;;;3.17;2.97;;;28.60;88.30;;;;;;6029551;23;20864;-79
2022/05/19 08:30:51;;;;;;;4.50;3.00;;;28.90;88.50;;;;;;6021306;23;20855;-79
2022/05/19 08:33:19;;;;;;;3.30;2.93;;;29.10;85.60;;;;;;6025517;23;20436;-79
2022/05/19 08:35:46;;;;;;;4.03;3.37;;;29.20;85.30;;;;;;6028533;23;20546;-79
2022/05/19 08:38:14;;;;;;;3.80;3.20;;;29.20;86.30;;;;;;6019184;23;20487;-79
2022/05/19 08:40:45;;;;;;;5.17;3.67;;;29.20;83.60;;;;;;6025091;23;20466;-80
2022/05/19 08:43:15;;;;;;;3.30;3.10;;;29.00;83.80;;;;;;6030778;23;20450;-78
2022/05/19 08:45:47;;;;;;;3.77;3.37;;;29.20;83.80;;;;;;6028891;23;20888;-78
2022/05/19 08:48:19;;;;;;;5.67;3.30;;;29.20;83.30;;;;;;6024997;23;20440;-79
2022/05/19 08:50:51;;;;;;;3.97;3.20;;;29.50;83.70;;;;;;6027104;23;20437;-77
2022/05/19 08:53:20;;;;;;;6.40;3.23;;;30.00;82.10;;;;;;6026550;23;20532;-78
2022/05/19 08:55:51;;;;;;;4.90;3.77;;;30.40;80.30;;;;;;6027956;23;20467;-78
2022/05/19 08:58:39;;;;;;;3.30;3.10;;;31.00;78.80;;;;;;6028141;23;20495;-78
2022/05/19 09:01:14;;;;;;;4.50;3.10;;;31.30;77.70;;;;;;6029870;23;20523;-79
2022/05/19 09:03:50;;;;;;;3.63;3.33;;;31.40;78.10;;;;;;6027789;23;20571;-78
2022/05/19 09:06:33;;;;;;;3.70;3.20;;;31.90;76.30;;;;;;6035355;23;20463;-77
2022/05/19 09:09:15;;;;;;;5.50;2.63;;;32.10;73.10;;;;;;6045069;23;20483;-77
2022/05/19 09:11:52;;;;;;;4.73;3.10;;;32.50;74.70;;;;;;6036741;23;20451;-78
2022/05/19 09:14:21;;;;;;;3.53;3.27;;;33.20;71.20;;;;;;6040030;23;20871;-78
2022/05/19 09:16:50;;;;;;;4.00;3.10;;;33.30;69.90;;;;;;6033197;23;20506;-78
2022/05/19 09:19:22;;;;;;;3.37;3.07;;;33.20;70.70;;;;;;6039426;23;20486;-79
2022/05/19 09:22:04;;;;;;;3.10;2.80;;;33.20;69.40;;;;;;6056388;23;20506;-84
2022/05/19 09:24:33;;;;;;;3.43;3.13;;;33.30;69.00;;;;;;6038707;23;20523;-79
2022/05/19 09:27:01;;;;;;;3.53;3.23;;;33.40;69.00;;;;;;6033804;23;20522;-79
2022/05/19 09:29:34;;;;;;;3.33;3.03;;;33.40;69.60;;;;;;6048643;23;20822;-79
2022/05/19 09:32:13;;;;;;;4.77;3.00;;;33.90;68.30;;;;;;6026973;23;20447;-79
2022/05/19 09:34:44;;;;;;;3.13;2.93;;;34.60;66.20;;;;;;6037958;23;20467;-79
2022/05/19 09:37:14;;;;;;;3.60;2.87;;;35.30;63.00;;;;;;6037854;23;20451;-80
2022/05/19 09:39:52;;;;;;;4.23;3.00;;;35.20;61.80;;;;;;6044521;23;20471;-78
2022/05/19 09:42:30;;;;;;;2.90;2.60;;;35.20;60.90;;;;;;6045441;23;20537;-78
2022/05/19 09:44:59;;;;;;;3.00;2.80;;;35.30;60.20;;;;;;6047106;23;20893;-78
2022/05/19 09:47:31;;;;;;;4.03;2.60;;;36.20;59.30;;;;;;6038096;23;20458;-78
2022/05/19 09:50:08;;;;;;;7.47;3.50;;;36.70;58.60;;;;;;6043388;23;20472;-78
2022/05/19 09:52:36;;;;;;;3.30;2.90;;;36.70;57.60;;;;;;6050410;23;20439;-78
2022/05/19 09:55:08;;;;;;;3.30;3.00;;;35.80;56.90;;;;;;6023437;23;20473;-78
2022/05/19 09:57:43;;;;;;;3.97;2.90;;;35.70;58.20;;;;;;6038816;23;20447;-78
2022/05/19 10:00:19;;;;;;;3.40;3.20;;;35.20;58.20;;;;;;6045215;23;20463;-78
2022/05/19 10:02:52;;;;;;;3.30;2.90;;;35.40;58.30;;;;;;6032418;23;20447;-78
2022/05/19 10:05:32;;;;;;;4.03;3.13;;;35.20;58.50;;;;;;6024500;23;20483;-78
2022/05/19 10:08:05;;;;;;;3.90;3.17;;;35.10;58.80;;;;;;6041251;23;20452;-79
2022/05/19 10:10:41;;;;;;;3.00;2.70;;;35.00;59.10;;;;;;6036168;23;20447;-78
2022/05/19 10:13:12;;;;;;;3.00;2.70;;;35.40;58.70;;;;;;6036548;23;21795;-79
2022/05/19 10:15:50;;;;;;;2.97;2.70;;;35.70;59.30;;;;;;6031929;23;20821;-78
2022/05/19 10:18:53;;;;;;;4.87;3.50;;;36.00;58.00;;;;;;6033039;23;20490;-78
2022/05/19 10:21:37;;;;;;;4.00;3.27;;;36.40;57.10;;;;;;6040841;23;20483;-78
2022/05/19 10:24:23;;;;;;;3.47;3.00;;;36.40;57.30;;;;;;6049521;23;20440;-78
2022/05/19 10:31:02;;;;;;;3.77;2.90;;;36.50;57.90;;;;;;6043409;23;20957;-78
2022/05/19 10:32:56;;;;;;;3.60;3.20;;;35.90;58.70;;;;;;6020831;23;20440;-78
2022/05/19 10:35:29;;;;;;;4.77;3.20;;;36.20;57.50;;;;;;6029169;23;20470;-78
2022/05/19 10:38:19;;;;;;;3.90;3.17;;;36.30;58.00;;;;;;6030466;23;20441;-78
2022/05/19 10:41:01;;;;;;;3.73;3.27;;;35.80;58.30;;;;;;6028706;23;20436;-78
2022/05/19 10:43:45;;;;;;;3.27;3.07;;;35.50;57.00;;;;;;6029780;23;20459;-78
2022/05/19 10:46:15;;;;;;;3.77;3.40;;;35.30;57.50;;;;;;6025967;23;20468;-78
2022/05/19 10:48:56;;;;;;;4.53;3.73;;;35.10;57.40;;;;;;6019931;23;20440;-78
2022/05/19 10:51:35;;;;;;;3.57;3.27;;;35.10;57.90;;;;;;6038643;23;20822;-79
2022/05/19 10:54:22;;;;;;;3.93;3.13;;;35.60;58.20;;;;;;6042651;23;20526;-78
2022/05/19 10:57:23;;;;;;;4.03;3.03;;;36.20;57.50;;;;;;6032113;23;20519;-78
2022/05/19 11:00:08;;;;;;;2.93;2.70;;;35.80;56.80;;;;;;6021724;23;20464;-79
2022/05/19 11:02:58;;;;;;;3.30;3.00;;;36.10;56.80;;;;;;6029742;23;20441;-78
2022/05/19 11:05:39;;;;;;;3.60;3.30;;;37.10;56.40;;;;;;6027772;23;21033;-79
2022/05/19 11:08:18;;;;;;;3.23;3.03;;;37.90;55.50;;;;;;6028713;23;20462;-76
2022/05/19 11:10:54;;;;;;;4.27;3.13;;;38.40;54.50;;;;;;6025339;23;20439;-80
2022/05/19 11:13:39;;;;;;;6.17;3.03;;;38.20;54.00;;;;;;6030835;23;20440;-78
2022/05/19 11:16:15;;;;;;;3.43;3.20;;;38.80;54.20;;;;;;6018649;23;20460;-78
2022/05/19 11:18:54;;;;;;;4.10;3.10;;;39.00;53.40;;;;;;6029173;23;20858;-78
2022/05/19 11:21:27;;;;;;;3.90;3.50;;;38.80;53.10;;;;;;6030405;23;20464;-80
2022/05/19 11:24:00;;;;;;;3.50;3.20;;;38.90;53.00;;;;;;6028341;23;20531;-79
2022/05/19 11:26:31;;;;;;;5.30;3.10;;;38.60;53.80;;;;;;6023221;23;20490;-79
2022/05/19 11:29:18;;;;;;;3.40;3.20;;;38.60;53.30;;;;;;6021119;23;20523;-79
2022/05/19 11:31:51;;;;;;;3.30;3.07;;;38.50;53.60;;;;;;6025188;23;20439;-79
2022/05/19 11:34:25;;;;;;;3.37;3.03;;;38.50;53.00;;;;;;6022465;23;20462;-79
2022/05/19 11:36:57;;;;;;;4.07;3.40;;;38.70;53.00;;;;;;6024283;23;20867;-79
2022/05/19 11:39:31;;;;;;;3.73;3.50;;;38.50;51.90;;;;;;6029829;23;20451;-79
2022/05/19 11:42:07;;;;;;;4.10;3.70;;;37.80;53.60;;;;;;6028766;23;20467;-78
2022/05/19 11:44:38;;;;;;;4.63;3.00;;;37.00;53.60;;;;;;6025369;23;20463;-79
2022/05/19 11:47:15;;;;;;;4.20;3.17;;;37.10;54.90;;;;;;6023223;23;20466;-79
2022/05/19 11:55:29;;;;;;;3.50;3.20;;;36.60;55.20;;;;;;6020310;23;20529;-78
2022/05/19 11:58:01;;;;;;;3.57;3.20;;;36.70;55.00;;;;;;6020168;23;20467;-82
2022/05/19 12:00:32;;;;;;;4.10;3.70;;;35.90;55.20;;;;;;6028594;23;20441;-79
2022/05/19 12:03:04;;;;;;;3.93;3.53;;;36.20;55.70;;;;;;6020058;23;20454;-79
2022/05/19 12:05:36;;;;;;;3.70;3.40;;;36.40;56.00;;;;;;6024103;23;20994;-79
2022/05/19 12:08:18;;;;;;;3.60;3.30;;;37.00;55.80;;;;;;6023091;23;20523;-79
2022/05/19 12:10:50;;;;;;;3.83;3.53;;;37.10;54.50;;;;;;6033813;23;20453;-76
2022/05/19 12:13:20;;;;;;;5.43;3.27;;;36.80;53.50;;;;;;6031149;23;20773;-76
2022/05/19 12:15:57;;;;;;;3.63;3.33;;;36.90;54.40;;;;;;6037785;23;20443;-76
2022/05/19 12:18:46;;;;;;;4.57;3.70;;;37.50;54.00;;;;;;6033864;23;20866;-76
2022/05/19 12:21:39;;;;;;;3.60;3.40;;;37.90;52.30;;;;;;6019740;23;20525;-77
2022/05/19 12:24:08;;;;;;;3.33;3.13;;;38.30;52.90;;;;;;6026373;23;20471;-77
2022/05/19 12:26:52;;;;;;;3.33;3.10;;;38.30;52.30;;;;;;6051431;23;20566;-77
2022/05/19 12:29:33;;;;;;;3.57;3.27;;;38.70;52.40;;;;;;6026258;23;20442;-77
2022/05/19 12:32:08;;;;;;;5.07;3.27;;;38.80;51.80;;;;;;6033472;23;20539;-77
2022/05/19 12:34:43;;;;;;;3.03;2.83;;;39.10;51.60;;;;;;6035367;23;20472;-77
2022/05/19 12:37:36;;;;;;;3.30;3.10;;;39.60;50.90;;;;;;6022313;23;21795;-77
2022/05/19 12:40:32;;;;;;;3.43;3.10;;;39.70;50.40;;;;;;6028834;23;21189;-77
2022/05/19 12:43:16;;;;;;;3.93;3.30;;;39.10;50.30;;;;;;5996660;23;20970;-77
2022/05/19 12:45:47;;;;;;;3.23;3.03;;;39.10;51.50;;;;;;6033973;23;20506;-76
2022/05/19 12:48:42;;;;;;;5.30;3.30;;;38.70;52.30;;;;;;6025169;23;20467;-76
2022/05/19 12:51:17;;;;;;;3.67;3.20;;;38.00;53.70;;;;;;6029552;23;20535;-76
2022/05/19 12:54:01;;;;;;;4.27;3.67;;;37.80;53.20;;;;;;6021838;23;20462;-76
2022/05/19 12:57:01;;;;;;;3.70;3.20;;;37.20;54.30;;;;;;6024645;23;20659;-77
2022/05/19 12:59:37;;;;;;;3.87;3.50;;;37.00;54.30;;;;;;6032836;23;20513;-77
2022/05/19 13:02:10;;;;;;;4.03;3.70;;;36.90;54.60;;;;;;6013161;23;20432;-76
2022/05/19 13:04:44;;;;;;;3.70;3.40;;;37.00;55.60;;;;;;6027927;23;20590;-76
2022/05/19 13:07:25;;;;;;;3.40;3.20;;;37.10;53.50;;;;;;6027929;23;20432;-77
2022/05/19 13:10:01;;;;;;;3.67;3.37;;;37.20;53.80;;;;;;6014414;23;20428;-77
2022/05/19 13:12:38;;;;;;;4.70;3.40;;;37.70;52.90;;;;;;6025739;23;20444;-77
2022/05/19 13:15:05;;;;;;;4.03;3.50;;;38.90;51.90;;;;;;6029419;23;20498;-77
2022/05/19 13:17:37;;;;;;;3.70;3.40;;;40.40;51.30;;;;;;6022511;23;20531;-77
2022/05/19 13:20:11;;;;;;;3.60;3.33;;;41.90;49.10;;;;;;6029263;23;20920;-77
2022/05/19 13:22:40;;;;;;;4.07;3.77;;;42.70;47.50;;;;;;6021847;23;20448;-77
2022/05/19 13:25:12;;;;;;;3.50;3.20;;;43.50;46.50;;;;;;6017905;23;20467;-78